Time;durP1;ratioP1;P1;durP2;ratioP2;P2;SDS_P1;SDS_P2;PMS_P1;PMS_P2;Temp;Humidity;BMP_temperature;BMP_pressure;BME280_temperature;BME280_humidity;BME280_pressure;Samples;Min_cycle;Max_cycle;Signal;HPM_P1;HPM_P2
2021/09/10 00:00:27;;;;;;;48.10;27.40;;;;;;;11.86;77.21;100015.16;109834;1220;545300;-66
2021/09/10 00:02:56;;;;;;;56.90;27.00;;;;;;;11.85;77.21;100019.61;110908;1205;137852;-65
2021/09/10 00:05:24;;;;;;;48.10;25.80;;;;;;;11.82;77.00;100016.92;110999;1209;22586;-65
2021/09/10 00:07:52;;;;;;;52.20;27.50;;;;;;;11.81;76.87;100019.54;110945;1204;138655;-64
2021/09/10 00:10:20;;;;;;;47.90;24.60;;;;;;;11.77;77.10;100019.42;111007;1209;22441;-65
2021/09/10 00:12:48;;;;;;;43.40;26.10;;;;;;;11.74;77.10;100016.07;111069;1216;23437;-65
2021/09/10 00:15:31;;;;;;;53.00;25.60;;;;;;;11.71;77.08;100017.54;115194;1205;138054;-65
2021/09/10 00:17:59;;;;;;;47.00;24.30;;;;;;;11.67;76.95;100014.46;115254;1211;23289;-65
2021/09/10 00:20:46;;;;;;;;;;;;;;;11.65;77.03;100013.11;115162;1205;140090;-65
2021/09/10 00:23:15;;;;;;;39.60;24.50;;;;;;;11.62;77.17;100012.80;115354;1210;22387;-66
2021/09/10 00:25:53;;;;;;;44.60;25.30;;;;;;;11.59;77.31;100011.50;115102;1205;138476;-65
2021/09/10 00:28:23;;;;;;;39.20;25.60;;;;;;;11.57;77.15;100014.20;115242;1205;22374;-65
2021/09/10 00:30:52;;;;;;;41.30;25.70;;;;;;;11.55;77.03;100012.80;115295;1210;22752;-64
2021/09/10 00:33:20;;;;;;;44.80;26.10;;;;;;;11.52;77.08;100014.10;115045;1205;138259;-65
2021/09/10 00:36:03;;;;;;;42.40;25.50;;;;;;;11.51;77.01;100013.21;115336;1215;22364;-65
2021/09/10 00:38:32;;;;;;;40.40;24.00;;;;;;;11.49;77.04;100010.56;115097;1208;139015;-64
2021/09/10 00:41:01;;;;;;;47.00;25.50;;;;;;;11.48;77.23;100012.39;115231;1210;22284;-65
2021/09/10 00:43:29;;;;;;;47.20;26.10;;;;;;;11.47;77.29;100010.80;115125;1210;22313;-64
2021/09/10 00:45:58;;;;;;;37.60;23.10;;;;;;;11.46;77.24;100012.73;115120;1206;138698;-64
2021/09/10 00:48:34;;;;;;;41.70;25.30;;;;;;;11.46;77.21;100013.89;115210;1209;22388;-64
2021/09/10 00:51:02;;;;;;;40.30;25.50;;;;;;;11.46;77.24;100011.27;115162;1204;138158;-64
2021/09/10 00:53:31;;;;;;;39.20;25.50;;;;;;;11.46;77.17;100008.60;115209;1209;22268;-64
2021/09/10 00:56:19;;;;;;;35.30;24.40;;;;;;;11.46;77.08;100010.68;115149;1207;139082;-64
2021/09/10 00:59:05;;;;;;;39.90;24.20;;;;;;;11.45;76.82;100010.88;115236;1210;22335;-64
2021/09/10 01:01:33;;;;;;;44.20;24.00;;;;;;;11.43;76.96;100008.17;115279;1216;22371;-65
2021/09/10 01:04:03;;;;;;;43.30;24.00;;;;;;;11.41;77.00;100014.31;115164;1205;139616;-64
2021/09/10 01:06:52;;;;;;;44.50;24.80;;;;;;;11.39;77.05;100017.90;115223;1209;22304;-65
2021/09/10 01:09:41;;;;;;;36.20;23.00;;;;;;;11.38;76.98;100022.30;115331;1203;138130;-65
2021/09/10 01:12:09;;;;;;;42.10;23.40;;;;;;;11.36;77.19;100017.25;115341;1200;22287;-64
2021/09/10 01:14:37;;;;;;;49.40;23.40;;;;;;;11.36;77.20;100023.58;115175;1203;138629;-65
2021/09/10 01:17:05;;;;;;;51.00;22.50;;;;;;;11.37;77.29;100022.33;115462;1207;23027;-64
2021/09/10 01:19:34;;;;;;;46.00;22.70;;;;;;;11.34;77.16;100023.02;115341;1205;22350;-64
2021/09/10 01:22:04;;;;;;;61.60;25.30;;;;;;;11.33;77.15;100019.34;115242;1204;138394;-64
2021/09/10 01:24:39;;;;;;;47.70;23.80;;;;;;;11.34;77.14;100017.11;115373;1206;23122;-64
2021/09/10 01:27:07;;;;;;;57.30;23.70;;;;;;;11.32;77.02;100017.48;115320;1205;138205;-64
2021/09/10 01:29:35;;;;;;;47.50;24.10;;;;;;;11.31;77.05;100018.27;115468;1205;22380;-65
2021/09/10 01:32:03;;;;;;;63.40;26.90;;;;;;;11.31;77.14;100020.00;115338;1201;138463;-64
2021/09/10 01:34:31;;;;;;;50.10;25.10;;;;;;;11.28;77.04;100019.69;115338;1205;22920;-65
2021/09/10 01:37:01;;;;;;;50.80;23.70;;;;;;;11.26;77.15;100023.53;115471;1206;22381;-65
2021/09/10 01:39:29;;;;;;;48.60;23.90;;;;;;;11.26;77.29;100020.31;115325;1204;139435;-63
2021/09/10 01:42:17;;;;;;;;;;;;;;;11.25;77.00;100017.58;115428;1205;22334;-63
2021/09/10 01:44:45;;;;;;;45.60;23.40;;;;;;;11.25;77.14;100014.41;115263;1203;124230;-63
2021/09/10 01:47:13;;;;;;;51.80;23.50;;;;;;;11.23;76.81;100013.75;115139;1202;79613;-63
2021/09/10 01:49:41;;;;;;;51.90;23.00;;;;;;;11.21;76.93;100010.38;115141;1202;168756;-63
2021/09/10 01:52:09;;;;;;;45.70;24.80;;;;;;;11.20;77.10;100011.67;115275;1202;138535;-63
2021/09/10 01:54:38;;;;;;;42.50;24.10;;;;;;;11.18;76.71;100013.66;115425;1207;22325;-63
2021/09/10 01:57:06;;;;;;;42.30;23.10;;;;;;;11.15;76.93;100008.91;115311;1202;140961;-63
2021/09/10 01:59:34;;;;;;;39.00;22.60;;;;;;;11.13;76.98;100010.73;115375;1207;23096;-63
2021/09/10 02:02:03;;;;;;;42.70;23.10;;;;;;;11.11;76.93;100009.19;115306;1202;138384;-64
2021/09/10 02:04:32;;;;;;;48.10;22.60;;;;;;;11.09;76.84;100010.42;115431;1207;22254;-64
2021/09/10 02:07:20;;;;;;;;;;;;;;;11.07;76.86;100009.23;115408;1206;23060;-64
2021/09/10 02:09:50;;;;;;;41.90;21.40;;;;;;;11.03;76.85;100009.44;115271;1203;123994;-64
2021/09/10 02:12:18;;;;;;;40.30;23.00;;;;;;;10.99;76.87;100006.10;115423;1206;22231;-64
2021/09/10 02:14:46;;;;;;;35.00;22.10;;;;;;;10.96;76.81;100007.38;115303;1202;138340;-64
2021/09/10 02:17:15;;;;;;;50.00;21.90;;;;;;;10.92;77.06;100009.65;115170;1203;138866;-63
2021/09/10 02:19:43;;;;;;;43.80;22.50;;;;;;;10.91;77.03;100016.34;115408;1207;22340;-64
2021/09/10 02:22:11;;;;;;;38.70;22.50;;;;;;;10.89;76.89;100016.25;115484;1207;23463;-67
2021/09/10 02:24:44;;;;;;;40.70;22.50;;;;;;;10.86;76.87;100015.81;115405;1204;138132;-66
2021/09/10 02:27:12;;;;;;;52.50;23.00;;;;;;;10.83;77.07;100016.25;115456;1207;22938;-66
2021/09/10 02:29:40;;;;;;;43.40;21.40;;;;;;;10.81;77.11;100012.70;115373;1202;138828;-66
2021/09/10 02:32:09;;;;;;;37.40;20.30;;;;;;;10.80;77.16;100013.92;115523;1210;24280;-66
2021/09/10 02:34:37;;;;;;;40.20;20.50;;;;;;;10.78;77.08;100016.35;115310;1207;22381;-65
2021/09/10 02:37:05;;;;;;;37.00;21.70;;;;;;;10.77;77.06;100016.44;115328;1204;138046;-65
2021/09/10 02:39:34;;;;;;;40.60;19.90;;;;;;;10.74;77.12;100016.06;115404;1207;22368;-65
2021/09/10 02:42:03;;;;;;;39.50;19.40;;;;;;;10.73;77.15;100017.56;115329;1204;138138;-65
2021/09/10 02:44:32;;;;;;;34.90;21.10;;;;;;;10.72;77.53;100010.89;115480;1207;23425;-65
2021/09/10 02:47:15;;;;;;;43.60;19.30;;;;;;;10.71;77.40;100010.70;115333;1204;139554;-65
2021/09/10 02:49:43;;;;;;;47.60;21.30;;;;;;;10.70;77.42;100008.29;115417;1207;23069;-65
2021/09/10 02:52:18;;;;;;;40.60;19.40;;;;;;;10.69;77.58;100008.54;115484;1207;22289;-65
2021/09/10 02:54:47;;;;;;;40.70;20.50;;;;;;;10.68;77.52;100011.80;115265;1202;138995;-64
2021/09/10 02:57:16;;;;;;;34.10;18.80;;;;;;;10.67;77.37;100009.29;115451;1207;22765;-64
2021/09/10 02:59:45;;;;;;;39.10;20.00;;;;;;;10.66;77.36;100011.18;115336;1204;138486;-64
2021/09/10 03:02:13;;;;;;;37.60;19.50;;;;;;;10.64;77.36;100006.57;115421;1213;22367;-64
2021/09/10 03:04:45;;;;;;;48.60;20.20;;;;;;;10.63;77.56;100008.05;115444;1207;23017;-64
2021/09/10 03:07:33;;;;;;;43.80;19.80;;;;;;;10.61;77.42;100003.36;115397;1206;22303;-64
2021/09/10 03:10:01;;;;;;;38.80;21.90;;;;;;;10.59;77.36;100003.32;115352;1207;22336;-64
2021/09/10 03:12:30;;;;;;;44.20;19.10;;;;;;;10.58;77.50;100003.84;115374;1204;138297;-64
2021/09/10 03:14:58;;;;;;;37.30;19.60;;;;;;;10.56;77.61;100006.42;115422;1213;22236;-64
2021/09/10 03:17:27;;;;;;;46.60;19.20;;;;;;;10.54;77.68;99999.23;115313;1203;139327;-63
2021/09/10 03:19:57;;;;;;;52.80;21.30;;;;;;;10.53;77.59;100005.67;115443;1208;22330;-64
2021/09/10 03:22:45;;;;;;;;;;;;;;;10.51;77.62;100002.31;115451;1207;22474;-66
2021/09/10 03:25:13;;;;;;;;;;;;;;;10.48;77.62;100000.14;115329;1202;124876;-65
2021/09/10 03:27:42;;;;;;;36.90;17.90;;;;;;;10.46;77.64;99998.64;115452;1207;22736;-64
2021/09/10 03:30:11;;;;;;;46.80;20.40;;;;;;;10.44;77.70;100000.77;115291;1204;138943;-64
2021/09/10 03:32:40;;;;;;;38.70;19.90;;;;;;;10.42;77.64;100001.12;115459;1207;22310;-65
2021/09/10 03:35:08;;;;;;;48.30;19.70;;;;;;;10.42;77.69;99999.58;115379;1207;22298;-65
2021/09/10 03:37:36;;;;;;;41.40;19.30;;;;;;;10.41;77.83;99997.23;115302;1204;137997;-64
2021/09/10 03:40:05;;;;;;;52.00;21.10;;;;;;;10.42;77.92;100000.45;115428;1207;22316;-64
2021/09/10 03:42:37;;;;;;;42.70;19.20;;;;;;;10.43;78.11;99998.13;115260;1201;138331;-64
2021/09/10 03:45:15;;;;;;;38.70;19.30;;;;;;;10.43;78.25;100005.05;115444;1207;22345;-65
2021/09/10 03:47:43;;;;;;;50.50;21.70;;;;;;;10.43;78.13;100003.52;115297;1205;139387;-65
2021/09/10 03:50:11;;;;;;;45.60;19.70;;;;;;;10.44;78.16;100003.98;115458;1207;22360;-64
2021/09/10 03:52:39;;;;;;;38.90;19.90;;;;;;;10.47;78.27;100008.73;115464;1206;22327;-65
2021/09/10 03:55:14;;;;;;;59.10;22.90;;;;;;;10.49;78.28;100007.30;115259;1201;139342;-65
2021/09/10 03:57:42;;;;;;;60.00;23.50;;;;;;;10.53;78.69;100006.98;115450;1213;22347;-65
2021/09/10 04:00:11;;;;;;;42.00;22.10;;;;;;;10.57;78.86;100008.52;115346;1205;139559;-65
2021/09/10 04:02:45;;;;;;;49.70;23.10;;;;;;;10.60;78.79;100007.75;115413;1207;22327;-65
2021/09/10 04:05:31;;;;;;;48.80;20.90;;;;;;;10.63;78.82;100008.30;115204;1203;139750;-64
2021/09/10 04:08:20;;;;;;;44.70;21.10;;;;;;;10.67;79.06;100007.88;115427;1207;23130;-64
2021/09/10 04:10:52;;;;;;;52.90;21.80;;;;;;;10.73;79.27;100010.64;115363;1207;22326;-64
2021/09/10 04:13:20;;;;;;;63.20;21.10;;;;;;;10.82;79.40;100010.98;115314;1208;138503;-64
2021/09/10 04:16:08;;;;;;;69.30;22.70;;;;;;;10.93;79.24;100007.77;115382;1211;22347;-65
2021/09/10 04:18:37;;;;;;;110.00;24.20;;;;;;;11.04;79.34;100003.28;115300;1204;140059;-64
2021/09/10 04:21:06;;;;;;;80.80;22.20;;;;;;;11.14;79.53;100000.81;115462;1213;22997;-64
2021/09/10 04:23:34;;;;;;;99.10;25.30;;;;;;;11.22;79.47;100006.30;115178;1202;138975;-64
2021/09/10 04:26:03;;;;;;;96.70;24.60;;;;;;;11.30;79.48;100008.42;115420;1208;22372;-64
2021/09/10 04:28:31;;;;;;;91.70;25.10;;;;;;;11.41;79.61;100004.77;115417;1208;22286;-64
2021/09/10 04:30:59;;;;;;;91.60;25.00;;;;;;;11.50;79.75;100006.96;115268;1202;139206;-64
2021/09/10 04:33:28;;;;;;;80.00;24.50;;;;;;;11.70;79.90;100008.82;115414;1207;22383;-64
2021/09/10 04:35:57;;;;;;;72.00;24.30;;;;;;;11.95;80.09;100010.30;115288;1202;138918;-64
2021/09/10 04:38:25;;;;;;;64.90;25.60;;;;;;;12.25;79.98;100010.14;115344;1207;22330;-64
2021/09/10 04:40:53;;;;;;;100.30;26.70;;;;;;;12.57;79.40;100006.31;115312;1206;22345;-64
2021/09/10 04:43:41;;;;;;;90.00;27.40;;;;;;;12.93;78.84;100001.16;115225;1206;139780;-64
2021/09/10 04:46:09;;;;;;;69.30;25.10;;;;;;;13.26;77.99;100000.33;115371;1208;22283;-64
2021/09/10 04:48:38;;;;;;;68.40;25.40;;;;;;;13.53;77.28;100000.88;115279;1202;138151;-64
2021/09/10 04:51:06;;;;;;;71.70;26.20;;;;;;;13.84;76.47;99998.23;115361;1208;22393;-64
2021/09/10 04:53:36;;;;;;;53.60;25.80;;;;;;;14.11;75.29;99998.92;115294;1201;137477;-64
2021/09/10 04:56:04;;;;;;;60.60;26.60;;;;;;;14.32;74.05;100001.34;115358;1208;22318;-64
2021/09/10 04:58:32;;;;;;;64.20;25.60;;;;;;;14.45;73.30;99999.42;115371;1207;22331;-64
2021/09/10 05:01:00;;;;;;;64.70;26.80;;;;;;;14.57;72.68;99995.27;115231;1202;137481;-65
2021/09/10 05:03:30;;;;;;;79.20;29.10;;;;;;;14.66;72.28;99996.27;115414;1213;22688;-65
2021/09/10 05:05:59;;;;;;;63.50;28.40;;;;;;;14.75;71.99;99994.30;115200;1201;137970;-65
2021/09/10 05:08:27;;;;;;;66.60;25.70;;;;;;;14.84;71.32;99993.54;115436;1207;22232;-65
2021/09/10 05:10:55;;;;;;;70.60;26.80;;;;;;;14.94;70.84;99993.80;115320;1208;22738;-65
2021/09/10 05:13:23;;;;;;;76.60;30.10;;;;;;;15.02;70.44;99989.62;115278;1201;138658;-66
2021/09/10 05:15:51;;;;;;;66.60;28.60;;;;;;;15.08;70.10;99991.00;115376;1212;22227;-64
2021/09/10 05:18:19;;;;;;;55.50;26.20;;;;;;;15.18;69.92;99993.02;115248;1202;138044;-63
2021/09/10 05:20:59;;;;;;;70.40;28.50;;;;;;;15.30;69.59;99993.76;115403;1208;22112;-66
2021/09/10 05:23:27;;;;;;;57.00;28.50;;;;;;;15.39;69.43;99991.83;115196;1201;139254;-69
2021/09/10 05:25:56;;;;;;;70.80;26.70;;;;;;;15.50;69.21;99991.03;115312;1208;22402;-66
2021/09/10 05:28:24;;;;;;;74.90;25.70;;;;;;;15.64;68.87;99994.85;115375;1208;22302;-66
2021/09/10 05:30:53;;;;;;;59.70;24.40;;;;;;;15.77;68.53;99993.21;115245;1202;137319;-66
2021/09/10 05:33:21;;;;;;;55.80;24.30;;;;;;;15.89;68.19;99992.34;115386;1213;22324;-66
2021/09/10 05:35:49;;;;;;;67.00;24.80;;;;;;;16.01;67.94;99988.77;115234;1201;137529;-67
2021/09/10 05:38:17;;;;;;;31.00;21.20;;;;;;;16.11;67.50;99996.04;115395;1208;22322;-66
2021/09/10 05:40:45;;;;;;;29.60;19.90;;;;;;;16.20;66.58;99995.48;115333;1208;23063;-67
2021/09/10 05:43:14;;;;;;;29.20;18.20;;;;;;;16.27;65.88;99996.44;115333;1201;138123;-67
2021/09/10 05:45:42;;;;;;;30.10;18.20;;;;;;;16.35;64.94;99998.59;115365;1208;22328;-67
2021/09/10 05:48:18;;;;;;;40.40;19.20;;;;;;;16.40;64.17;99998.73;115266;1202;137799;-67
2021/09/10 05:50:47;;;;;;;31.20;19.20;;;;;;;16.44;63.93;99998.64;115434;1208;22124;-67
2021/09/10 05:53:15;;;;;;;30.40;19.20;;;;;;;16.48;63.51;99999.38;115365;1207;22344;-67
2021/09/10 05:56:03;;;;;;;31.70;20.20;;;;;;;16.51;63.56;99996.78;115258;1203;137346;-67
2021/09/10 05:58:31;;;;;;;33.30;21.00;;;;;;;16.56;63.58;99997.14;115403;1212;23359;-67
2021/09/10 06:01:00;;;;;;;43.00;20.40;;;;;;;16.60;63.46;100001.62;115280;1202;138129;-67
2021/09/10 06:03:28;;;;;;;45.30;21.10;;;;;;;16.65;63.74;99994.63;115400;1208;22265;-67
2021/09/10 06:05:59;;;;;;;33.00;21.00;;;;;;;16.70;63.72;99994.88;115195;1201;137943;-67
2021/09/10 06:08:47;;;;;;;43.60;21.20;;;;;;;16.75;63.70;99992.66;115368;1212;22302;-68
2021/09/10 06:11:16;;;;;;;46.90;21.40;;;;;;;16.81;63.69;99998.13;115449;1208;22986;-67
2021/09/10 06:14:04;;;;;;;49.40;21.00;;;;;;;16.88;63.85;100001.05;115256;1204;138726;-67
2021/09/10 06:16:32;;;;;;;53.90;23.20;;;;;;;16.94;63.91;100001.11;115358;1211;22446;-67
2021/09/10 06:19:01;;;;;;;53.60;20.30;;;;;;;17.01;63.87;100001.89;115281;1203;138687;-67
2021/09/10 06:21:29;;;;;;;41.40;20.90;;;;;;;17.07;63.59;100004.36;115354;1208;22341;-67
2021/09/10 06:23:57;;;;;;;47.60;23.00;;;;;;;17.14;63.45;100008.59;115213;1206;138059;-67
2021/09/10 06:26:26;;;;;;;44.20;20.80;;;;;;;17.22;63.11;100009.39;115382;1213;22522;-67
2021/09/10 06:28:54;;;;;;;41.00;19.40;;;;;;;17.31;62.88;100009.04;115325;1212;22313;-67
2021/09/10 06:31:23;;;;;;;52.40;20.40;;;;;;;17.40;62.74;100015.06;115320;1202;138512;-67
2021/09/10 06:33:52;;;;;;;43.40;20.80;;;;;;;17.48;62.65;100012.21;115332;1208;22252;-68
2021/09/10 06:36:20;;;;;;;42.00;20.10;;;;;;;17.58;62.43;100015.48;115260;1201;138741;-67
2021/09/10 06:38:49;;;;;;;36.00;20.30;;;;;;;17.66;62.20;100014.80;115436;1208;22323;-67
2021/09/10 06:41:17;;;;;;;43.80;19.70;;;;;;;17.74;61.78;100012.85;115352;1208;22316;-66
2021/09/10 06:43:49;;;;;;;49.70;21.70;;;;;;;17.81;61.98;100011.83;115247;1202;137787;-66
2021/09/10 06:46:17;;;;;;;45.00;20.10;;;;;;;17.87;61.96;100013.52;113351;1208;22444;-68
2021/09/10 06:48:46;;;;;;;40.80;19.50;;;;;;;17.93;61.41;100014.27;110909;1202;137819;-67
2021/09/10 06:51:14;;;;;;;33.40;18.20;;;;;;;17.95;61.68;100012.42;115283;1208;23219;-68
2021/09/10 06:53:42;;;;;;;39.90;18.00;;;;;;;18.02;61.10;100017.38;115253;1201;138780;-67
2021/09/10 06:56:10;;;;;;;37.60;18.10;;;;;;;18.05;60.92;100016.31;115309;1208;22415;-68
2021/09/10 06:58:38;;;;;;;39.80;17.70;;;;;;;18.09;60.55;100013.52;115304;1207;22320;-68
2021/09/10 07:01:06;;;;;;;41.50;19.60;;;;;;;18.15;60.72;100019.73;115178;1202;137810;-68
2021/09/10 07:03:36;;;;;;;29.40;15.90;;;;;;;18.20;60.75;100020.15;115355;1207;22310;-68
2021/09/10 07:06:06;;;;;;;45.80;17.60;;;;;;;18.26;60.78;100023.34;115190;1203;139366;-67
2021/09/10 07:08:34;;;;;;;48.00;21.50;;;;;;;18.32;60.86;100022.20;115300;1208;22316;-68
2021/09/10 07:11:22;;;;;;;36.20;19.80;;;;;;;18.41;60.70;100020.42;115314;1208;22266;-69
2021/09/10 07:13:50;;;;;;;53.40;22.80;;;;;;;18.47;60.44;100024.95;115183;1206;137823;-68
2021/09/10 07:16:33;;;;;;;44.60;21.70;;;;;;;18.54;60.20;100024.33;115363;1207;22250;-68
2021/09/10 07:19:05;;;;;;;43.90;25.00;;;;;;;18.62;59.23;100025.89;115183;1203;137874;-68
2021/09/10 07:21:33;;;;;;;52.40;24.60;;;;;;;18.70;59.00;100026.76;115319;1212;22460;-68
2021/09/10 07:24:04;;;;;;;55.70;26.40;;;;;;;18.81;59.32;100027.20;115217;1202;138273;-68
2021/09/10 07:26:32;;;;;;;40.50;22.80;;;;;;;18.89;58.86;100028.00;115255;1208;22308;-68
2021/09/10 07:29:00;;;;;;;43.70;22.80;;;;;;;18.94;57.87;100028.08;115371;1207;23056;-69
2021/09/10 07:31:28;;;;;;;37.80;17.90;;;;;;;19.01;57.75;100033.40;115205;1202;138434;-69
2021/09/10 07:33:56;;;;;;;45.00;24.00;;;;;;;19.05;56.84;100033.98;115393;1207;23060;-69
2021/09/10 07:36:24;;;;;;;43.10;23.40;;;;;;;19.13;56.70;100029.89;115208;1202;138037;-68
2021/09/10 07:38:52;;;;;;;42.50;21.40;;;;;;;19.18;57.08;100025.58;115328;1208;22173;-68
2021/09/10 07:41:20;;;;;;;37.20;19.70;;;;;;;19.25;57.05;100028.61;115317;1207;22378;-69
2021/09/10 07:43:49;;;;;;;36.50;18.60;;;;;;;19.32;56.68;100028.06;115174;1202;137489;-68
2021/09/10 07:46:17;;;;;;;35.80;17.30;;;;;;;19.37;56.83;100031.60;115359;1208;22255;-69
2021/09/10 07:48:45;;;;;;;26.90;15.90;;;;;;;19.44;56.69;100029.98;115176;1202;138407;-68
2021/09/10 07:51:14;;;;;;;37.10;14.90;;;;;;;19.51;56.33;100029.88;115324;1213;23100;-68
2021/09/10 07:53:42;;;;;;;30.90;14.30;;;;;;;19.59;55.64;100027.59;115248;1202;138278;-67
2021/09/10 07:56:09;;;;;;;36.50;14.50;;;;;;;19.66;55.68;100028.05;115282;1208;22350;-68
2021/09/10 07:58:38;;;;;;;21.50;12.40;;;;;;;19.71;55.47;100026.70;115367;1208;22358;-68
2021/09/10 08:01:06;;;;;;;22.00;12.30;;;;;;;19.77;54.74;100024.52;115173;1205;137704;-68
2021/09/10 08:03:35;;;;;;;20.30;11.00;;;;;;;19.81;54.59;100018.88;115380;1207;22317;-68
2021/09/10 08:06:04;;;;;;;21.80;9.90;;;;;;;19.83;54.25;100019.65;115192;1202;139604;-69
2021/09/10 08:08:32;;;;;;;19.10;10.50;;;;;;;19.87;54.06;100017.82;115356;1213;22295;-69
2021/09/10 08:11:02;;;;;;;30.10;11.50;;;;;;;19.90;53.90;100012.97;115349;1213;22362;-70
2021/09/10 08:13:30;;;;;;;20.70;10.70;;;;;;;19.95;53.54;100015.70;115199;1202;137576;-68
2021/09/10 08:16:00;;;;;;;17.30;8.00;;;;;;;19.99;52.88;100012.09;115330;1207;22288;-69
2021/09/10 08:18:29;;;;;;;17.30;9.30;;;;;;;20.04;51.81;100009.59;115166;1202;138266;-68
2021/09/10 08:21:02;;;;;;;19.30;10.50;;;;;;;20.12;51.54;100010.52;115348;1212;22217;-68
2021/09/10 08:23:31;;;;;;;15.20;9.30;;;;;;;20.20;51.43;100007.50;115355;1208;22298;-69
2021/09/10 08:26:00;;;;;;;25.20;9.40;;;;;;;20.26;51.93;100007.30;115208;1203;137732;-69
2021/09/10 08:28:29;;;;;;;33.80;9.80;;;;;;;20.30;52.46;100001.07;115382;1208;22345;-70
2021/09/10 08:30:58;;;;;;;16.30;8.00;;;;;;;20.35;52.31;100004.56;115193;1201;138767;-69
2021/09/10 08:33:26;;;;;;;12.30;8.00;;;;;;;20.38;51.25;100002.95;115376;1207;22312;-69
2021/09/10 08:35:55;;;;;;;20.00;9.40;;;;;;;20.41;51.18;99999.80;115124;1202;137748;-68
2021/09/10 08:38:23;;;;;;;14.40;9.30;;;;;;;20.43;51.48;99999.70;115336;1207;22382;-69
2021/09/10 08:40:51;;;;;;;15.70;8.70;;;;;;;20.47;50.97;99992.08;115357;1208;22113;-69
2021/09/10 08:43:19;;;;;;;14.90;8.80;;;;;;;20.51;50.75;99989.48;115220;1201;138464;-68
2021/09/10 08:45:48;;;;;;;22.20;8.80;;;;;;;20.54;50.72;99988.42;115458;1208;22312;-69
2021/09/10 08:48:19;;;;;;;21.30;9.30;;;;;;;20.57;50.47;99987.92;115224;1203;138167;-68
2021/09/10 08:50:48;;;;;;;9.60;6.90;;;;;;;20.60;50.17;99985.58;115462;1208;22313;-68
2021/09/10 08:53:16;;;;;;;13.90;6.90;;;;;;;20.62;50.27;99982.37;115359;1208;22340;-67
2021/09/10 08:55:44;;;;;;;9.40;6.30;;;;;;;20.65;50.43;99985.38;115231;1205;137416;-66
2021/09/10 08:58:12;;;;;;;10.80;6.00;;;;;;;20.69;50.01;99980.98;115405;1208;23537;-66
2021/09/10 09:00:41;;;;;;;15.50;6.40;;;;;;;20.72;49.41;99979.45;115257;1201;137168;-68
2021/09/10 09:03:11;;;;;;;14.40;7.40;;;;;;;20.76;49.68;99976.36;115341;1207;22423;-69
2021/09/10 09:05:39;;;;;;;13.60;6.30;;;;;;;20.82;49.20;99975.31;115273;1201;138733;-67
2021/09/10 09:08:14;;;;;;;14.80;8.40;;;;;;;20.87;48.84;99968.30;115304;1208;22358;-68
2021/09/10 09:10:48;;;;;;;15.60;7.70;;;;;;;20.93;49.45;99965.88;115369;1211;22336;-69
2021/09/10 09:13:17;;;;;;;11.30;7.70;;;;;;;20.97;48.99;99965.31;115220;1201;139266;-68
2021/09/10 09:15:46;;;;;;;14.50;8.00;;;;;;;21.01;48.35;99963.68;115437;1208;22315;-68
2021/09/10 09:18:14;;;;;;;14.70;8.20;;;;;;;21.05;47.82;99962.96;115177;1203;138629;-69
2021/09/10 09:20:46;;;;;;;12.00;7.50;;;;;;;21.10;47.78;99961.22;115464;1207;22324;-68
2021/09/10 09:23:14;;;;;;;20.50;9.70;;;;;;;21.12;47.80;99959.77;115330;1208;23245;-69
2021/09/10 09:25:44;;;;;;;16.00;7.50;;;;;;;21.15;48.00;99958.48;115280;1202;137477;-69
2021/09/10 09:28:31;;;;;;;11.10;6.70;;;;;;;21.17;47.71;99959.15;115342;1207;23694;-68
2021/09/10 09:31:01;;;;;;;19.20;7.00;;;;;;;21.19;47.03;99956.85;115218;1201;137865;-69
2021/09/10 09:33:31;;;;;;;15.90;7.80;;;;;;;21.22;46.62;99958.88;115355;1207;23265;-68
2021/09/10 09:36:03;;;;;;;13.60;6.50;;;;;;;21.25;47.14;99956.25;115256;1202;138828;-68
2021/09/10 09:38:41;;;;;;;40.10;9.20;;;;;;;21.28;46.93;99955.55;115376;1208;22373;-68
2021/09/10 09:41:11;;;;;;;19.50;7.50;;;;;;;21.32;46.71;99952.81;115397;1206;22292;-69
2021/09/10 09:43:49;;;;;;;16.60;6.40;;;;;;;21.34;46.62;99950.15;115125;1204;139641;-68
2021/09/10 09:46:22;;;;;;;17.40;6.30;;;;;;;21.37;45.88;99950.80;115326;1213;22372;-69
2021/09/10 09:49:06;;;;;;;16.60;7.20;;;;;;;21.42;46.33;99948.58;115190;1204;137807;-68
2021/09/10 09:51:34;;;;;;;12.30;7.30;;;;;;;21.45;46.54;99948.34;115325;1207;22373;-68
2021/09/10 09:54:03;;;;;;;14.40;6.80;;;;;;;21.47;47.10;99945.27;115201;1204;138236;-68
2021/09/10 09:56:31;;;;;;;20.50;7.30;;;;;;;21.50;47.02;99943.81;115284;1214;22277;-68
2021/09/10 09:58:59;;;;;;;15.40;7.10;;;;;;;21.54;46.81;99942.81;115341;1213;22360;-68
2021/09/10 10:01:27;;;;;;;10.10;6.10;;;;;;;21.58;46.88;99943.42;115083;1204;138717;-68
2021/09/10 10:03:57;;;;;;;20.00;7.60;;;;;;;21.61;46.73;99943.67;115332;1207;22365;-68
2021/09/10 10:06:25;;;;;;;11.00;6.80;;;;;;;21.64;46.22;99941.12;115292;1203;138044;-68
2021/09/10 10:09:02;;;;;;;11.10;6.10;;;;;;;21.67;46.13;99937.05;115358;1207;22333;-68
2021/09/10 10:11:48;;;;;;;14.70;7.00;;;;;;;21.69;46.37;99933.61;115357;1208;22233;-68
2021/09/10 10:14:37;;;;;;;18.20;6.80;;;;;;;21.70;45.78;99930.25;115088;1204;137353;-69
2021/09/10 10:17:40;;;;;;;14.50;7.10;;;;;;;21.68;45.06;99928.54;115386;1207;22347;-68
2021/09/10 10:20:11;;;;;;;10.90;5.80;;;;;;;21.65;44.92;99930.88;114976;1206;137170;-69
2021/09/10 10:22:40;;;;;;;14.30;5.90;;;;;;;21.71;44.57;99924.64;115089;1210;22354;-69
2021/09/10 10:25:09;;;;;;;9.50;5.60;;;;;;;21.78;44.86;99927.77;114965;1207;137538;-69
2021/09/10 10:27:38;;;;;;;20.90;6.50;;;;;;;21.82;45.05;99924.40;115266;1209;22265;-70
2021/09/10 10:30:29;;;;;;;10.20;5.90;;;;;;;21.86;44.75;99922.91;115060;1204;137711;-69
2021/09/10 10:32:57;;;;;;;8.60;5.60;;;;;;;21.87;43.50;99918.41;115261;1208;23195;-70
2021/09/10 10:35:27;;;;;;;10.30;6.10;;;;;;;21.91;43.44;99914.77;115195;1214;22260;-70
2021/09/10 10:38:01;;;;;;;12.40;6.50;;;;;;;21.94;43.40;99908.23;115020;1207;137425;-69
2021/09/10 10:40:40;;;;;;;10.90;5.60;;;;;;;21.96;43.67;99907.23;115200;1208;23056;-70
2021/09/10 10:43:18;;;;;;;13.50;6.30;;;;;;;21.98;43.63;99907.10;115046;1204;138731;-70
2021/09/10 10:46:00;;;;;;;16.50;5.70;;;;;;;22.02;44.23;99905.41;115201;1209;22247;-72
2021/09/10 10:51:20;;;;;;;23.10;6.70;;;;;;;22.10;44.39;99904.77;115131;1208;22341;-69
2021/09/10 10:53:48;;;;;;;15.20;7.30;;;;;;;22.14;43.41;99901.70;115129;1209;22576;-69
2021/09/10 10:56:25;;;;;;;20.40;6.80;;;;;;;22.17;43.90;99899.23;115144;1204;137373;-69
2021/09/10 10:59:11;;;;;;;12.30;6.10;;;;;;;22.19;43.96;99899.20;115266;1207;22485;-69
2021/09/10 11:02:49;;;;;;;17.30;6.30;;;;;;;22.21;43.74;99898.63;115219;1201;137664;-70
2021/09/10 11:05:18;;;;;;;16.70;6.00;;;;;;;22.25;43.59;99895.69;115366;1203;23407;-70
2021/09/10 11:07:46;;;;;;;10.60;5.70;;;;;;;22.27;42.15;99897.77;115183;1203;137454;-70
2021/09/10 11:10:18;;;;;;;14.80;5.90;;;;;;;22.31;43.49;99897.08;115243;1209;22420;-69
2021/09/10 11:12:58;;;;;;;12.80;6.40;;;;;;;22.33;42.59;99891.00;115207;1202;137356;-69
2021/09/10 11:15:30;;;;;;;11.00;6.10;;;;;;;22.34;42.40;99887.41;115273;1207;23412;-70
2021/09/10 11:18:14;;;;;;;10.60;6.50;;;;;;;22.37;42.76;99887.13;115075;1203;137864;-69
2021/09/10 11:20:44;;;;;;;10.20;6.00;;;;;;;22.39;41.68;99886.27;115234;1214;22245;-69
2021/09/10 11:23:26;;;;;;;16.80;6.50;;;;;;;22.40;41.44;99883.53;115242;1206;22334;-69
2021/09/10 11:25:56;;;;;;;11.20;5.80;;;;;;;22.40;41.00;99881.38;115194;1201;137471;-70